Weather History for Jefferson, NC

Change the Weather History Date:

Wednesday, February 27, 2013

  Actual Average Record
Temperature  
Mean Temperature 40 °F -  
Max Temperature 47 °F 48 °F 67 °F (1977)
Min Temperature 33 °F 24 °F 10 °F (1968)
Degree Days  
Heating Degree Days 25    
Moisture  
Dew Point 27 °F    
Average Humidity 67    
Maximum Humidity 88    
Minimum Humidity 30    
Precipitation  
Precipitation 0.00 in - - ()
Sea Level Pressure  
Sea Level Pressure 29.67 in    
Wind  
Wind Speed 15 mph (West)    
Max Wind Speed 30 mph    
Max Gust Speed 38 mph    
Visibility 10 miles    
Events Snow    
Averages and records for this station are not official NWS values.
T = Trace of Precipitation, MM = Missing Value Source: NWS Daily Summary

Daily Weather History Graph

Daily Weather History Graph

Search for Another Location

Airport:

Trip Planner

Search our weather history database for the weather conditions in past years. The results will help you decide how hot, cold, wet, or windy it might be!

Date:

Astronomy

Feb. 27, 2013 Rise Set
Actual Time 6:58 AM EST 6:18 PM EST
Civil Twilight 6:32 AM EST 6:44 PM EST
Nautical Twilight 6:02 AM EST 7:14 PM EST
Astronomical Twilight 5:32 AM EST 7:44 PM EST
Moon 8:32 PM EST (2/27) 7:37 AM EST (2/27)
Length of Visible Light 12h 12m
Length of Day
11h 20m
Waning Gibbous, 96% of the Moon is Illuminated
Feb 27
Waning Gibbous
Mar 4
Last Quarter
Mar 11
New
Mar 19
First Quarter
Mar 27
Full

Hourly Weather History & Observations

Time (EST) Temp. Windchill Dew Point Humidity Pressure Visibility Wind Dir Wind Speed Gust Speed Precip Events Conditions
12:15 AM 37.4 °F 29.3 °F 33.3 °F 85% 29.57 in 10.0 mi WNW 12.7 mph 20.7 mph N/A   Scattered Clouds
12:35 AM 36.9 °F 29.6 °F 33.1 °F 86% 29.58 in 10.0 mi West 10.4 mph 18.4 mph N/A   Mostly Cloudy
12:55 AM 36.7 °F 28.0 °F 33.1 °F 87% 29.58 in 10.0 mi West 13.8 mph 27.6 mph N/A   Overcast
1:15 AM 36.5 °F 27.8 °F 33.3 °F 88% 29.59 in 10.0 mi West 13.8 mph 19.6 mph N/A   Overcast
1:35 AM 36.3 °F 24.4 °F 31.5 °F 83% 29.58 in 10.0 mi West 25.3 mph 31.1 mph N/A   Overcast
1:55 AM 36.1 °F 27.3 °F 31.1 °F 82% 29.59 in 10.0 mi West 13.8 mph 21.9 mph N/A   Overcast
2:15 AM 36.1 °F 25.9 °F 29.8 °F 78% 29.58 in 10.0 mi West 18.4 mph 28.8 mph N/A   Overcast
2:35 AM 36.1 °F 25.9 °F 29.5 °F 77% 29.58 in 10.0 mi West 18.4 mph 28.8 mph N/A   Overcast
2:55 AM 35.8 °F 26.9 °F 30.2 °F 80% 29.58 in 10.0 mi West 13.8 mph 26.5 mph N/A   Overcast
3:15 AM 35.8 °F 26.9 °F 29.7 °F 78% 29.58 in 10.0 mi WNW 13.8 mph 28.8 mph N/A   Overcast
3:35 AM 35.6 °F 27.1 °F 29.1 °F 77% 29.58 in 10.0 mi West 12.7 mph 20.7 mph N/A   Overcast
3:55 AM 35.2 °F 23.8 °F 28.4 °F 76% 29.57 in 10.0 mi WNW 21.9 mph 29.9 mph N/A   Overcast
4:15 AM 34.9 °F 23.6 °F 28.4 °F 77% 29.58 in 10.0 mi West 20.7 mph 27.6 mph N/A   Overcast
4:35 AM 34.3 °F 22.9 °F 27.5 °F 76% 29.59 in 10.0 mi West 20.7 mph 33.4 mph N/A   Overcast
4:55 AM 34.0 °F 23.0 °F 26.1 °F 73% 29.60 in 10.0 mi West 18.4 mph 31.1 mph N/A   Overcast
5:15 AM 33.6 °F 22.2 °F 25.7 °F 73% 29.62 in 10.0 mi West 19.6 mph 29.9 mph N/A   Overcast
5:35 AM 33.4 °F 23.1 °F 25.2 °F 72% 29.62 in 10.0 mi WNW 16.1 mph 27.6 mph N/A   Overcast
6:55 AM 33.6 °F 19.8 °F 24.1 °F 68% 29.62 in 10.0 mi WNW 29.9 mph 38.0 mph N/A   Mostly Cloudy
7:15 AM 33.4 °F 20.3 °F 24.8 °F 71% 29.62 in 10.0 mi WNW 26.5 mph 35.7 mph N/A   Overcast
7:35 AM 33.3 °F 21.2 °F 25.2 °F 72% 29.63 in 10.0 mi West 21.9 mph 31.1 mph N/A   Overcast
7:55 AM 33.3 °F 22.1 °F 25.7 °F 74% 29.65 in 10.0 mi WNW 18.4 mph 31.1 mph N/A   Overcast
8:15 AM 33.4 °F 21.1 °F 24.6 °F 70% 29.65 in 10.0 mi WNW 23.0 mph 34.5 mph N/A   Mostly Cloudy
8:35 AM 33.4 °F 21.7 °F 24.4 °F 70% 29.66 in 10.0 mi West 20.7 mph 28.8 mph N/A   Scattered Clouds
8:55 AM 34.2 °F 23.6 °F 24.6 °F 68% 29.68 in 10.0 mi West 17.3 mph 31.1 mph N/A   Scattered Clouds
9:15 AM 34.9 °F 24.9 °F 25.0 °F 67% 29.69 in 10.0 mi West 16.1 mph 27.6 mph N/A   Mostly Cloudy
9:35 AM 35.6 °F 25.9 °F 25.2 °F 66% 29.70 in 10.0 mi West 16.1 mph 24.2 mph N/A   Overcast
10:15 AM 36.1 °F 25.0 °F 25.2 °F 64% 29.70 in 10.0 mi West 21.9 mph 26.5 mph N/A   Overcast
10:35 AM 36.7 °F 28.9 °F 25.7 °F 64% 29.72 in 10.0 mi West 11.5 mph 19.6 mph N/A   Overcast
10:55 AM 36.0 °F 26.3 °F 25.9 °F 67% 29.73 in 10.0 mi West 16.1 mph 21.9 mph N/A   Overcast
11:15 AM 36.1 °F 27.7 °F 25.9 °F 66% 29.73 in 10.0 mi West 12.7 mph 27.6 mph N/A   Overcast
11:55 AM 36.9 °F 28.7 °F 26.4 °F 66% 29.74 in 10.0 mi West 12.7 mph 26.5 mph N/A   Overcast
12:15 PM 36.3 °F 27.5 °F 27.0 °F 69% 29.74 in 10.0 mi West 13.8 mph 23.0 mph N/A   Overcast
12:35 PM 36.0 °F 30.3 °F 27.0 °F 70% 29.74 in 10.0 mi West 6.9 mph 21.9 mph N/A   Overcast
12:55 PM 36.3 °F 27.1 °F 27.3 °F 70% 29.72 in 10.0 mi West 15.0 mph 20.7 mph N/A   Overcast
1:15 PM 37.9 °F 29.6 °F 27.7 °F 67% 29.72 in 10.0 mi West 13.8 mph - N/A   Overcast
1:35 PM 37.2 °F 30.0 °F 27.7 °F 68% 29.70 in 10.0 mi West 10.4 mph - N/A   Mostly Cloudy
1:55 PM 39.4 °F 33.2 °F 27.9 °F 63% 29.70 in 10.0 mi West 9.2 mph - N/A   Mostly Cloudy
2:15 PM 40.8 °F 34.5 °F 27.5 °F 59% 29.70 in 10.0 mi WNW 10.4 mph - N/A   Scattered Clouds
2:35 PM 42.1 °F 37.7 °F 27.1 °F 55% 29.70 in 10.0 mi West 6.9 mph 19.6 mph N/A   Clear
2:55 PM 42.8 °F 39.3 °F 27.3 °F 54% 29.70 in 10.0 mi SW 5.8 mph - N/A   Clear
3:15 PM 43.7 °F 38.1 °F 27.9 °F 54% 29.69 in 10.0 mi West 10.4 mph - N/A   Clear
3:35 PM 43.7 °F 39.1 °F 28.0 °F 54% 29.68 in 10.0 mi WNW 8.1 mph - N/A   Clear
3:55 PM 44.4 °F 42.9 °F 28.2 °F 53% 29.68 in 10.0 mi West 3.5 mph - N/A   Clear
4:15 PM 46.9 °F - 28.2 °F 48% 29.68 in 10.0 mi South 3.5 mph - N/A   Clear
4:35 PM 47.3 °F - 27.7 °F 47% 29.68 in 10.0 mi SW 5.8 mph - N/A   Clear
4:55 PM 47.1 °F - 29.3 °F 50% 29.68 in 10.0 mi SW 6.9 mph - N/A   Clear
5:15 PM 47.5 °F - 22.1 °F 37% 29.68 in 10.0 mi SW 8.1 mph 26.5 mph N/A   Clear
5:35 PM 46.9 °F - 20.8 °F 36% 29.68 in 10.0 mi SW 8.1 mph 20.7 mph N/A   Clear
5:55 PM 46.4 °F 40.1 °F 18.3 °F 33% 29.67 in 10.0 mi WSW 15.0 mph 27.6 mph N/A   Clear
6:15 PM 45.5 °F 38.6 °F 15.8 °F 30% 29.68 in 10.0 mi WSW 16.1 mph 28.8 mph N/A   Clear
6:35 PM 44.6 °F 39.7 °F 16.3 °F 32% 29.68 in 10.0 mi WSW 9.2 mph 23.0 mph N/A   Clear
6:55 PM 43.7 °F 36.6 °F 18.3 °F 36% 29.69 in 10.0 mi West 15.0 mph 20.7 mph N/A   Clear
7:35 PM 40.3 °F 34.9 °F 24.6 °F 54% 29.71 in 10.0 mi West 8.1 mph 21.9 mph N/A   Mostly Cloudy
7:55 PM 40.1 °F 30.2 °F 24.8 °F 54% 29.70 in 10.0 mi West 21.9 mph 28.8 mph N/A   Overcast
8:15 PM 37.9 °F 27.9 °F 27.9 °F 67% 29.71 in 10.0 mi West 19.6 mph 26.5 mph N/A Snow Light Snow
8:35 PM 36.5 °F 27.8 °F 29.3 °F 75% 29.72 in 7.0 mi WSW 13.8 mph 26.5 mph N/A Snow Light Snow
8:55 PM 36.3 °F 29.5 °F 28.9 °F 75% 29.70 in 10.0 mi West 9.2 mph 17.3 mph N/A   Scattered Clouds
9:15 PM 36.5 °F 27.8 °F 28.6 °F 73% 29.70 in 10.0 mi West 13.8 mph 18.4 mph N/A   Scattered Clouds
9:35 PM 34.3 °F 23.2 °F 30.6 °F 86% 29.70 in 1.0 mi West 19.6 mph 23.0 mph N/A Snow Light Snow
9:55 PM 34.7 °F 24.0 °F 30.2 °F 84% 29.71 in 3.0 mi West 18.4 mph 23.0 mph N/A Snow Light Snow
10:15 PM 34.5 °F 23.8 °F 29.8 °F 83% 29.71 in 5.0 mi West 18.4 mph 26.5 mph N/A Snow Light Snow
10:35 PM 34.7 °F 22.5 °F 28.0 °F 77% 29.71 in 10.0 mi West 24.2 mph 34.5 mph N/A   Overcast
10:55 PM 34.3 °F 22.9 °F 27.3 °F 76% 29.70 in 10.0 mi West 20.7 mph 29.9 mph N/A   Overcast
11:15 PM 34.3 °F 23.9 °F 26.6 °F 73% 29.70 in 10.0 mi West 17.3 mph 26.5 mph N/A   Overcast
11:55 PM 33.8 °F 27.7 °F 26.8 °F 75% 29.68 in 10.0 mi West 6.9 mph - N/A Snow Light Snow